createdAt,value
2022-07-28T00:01:00.717Z,0.00
2022-07-28T00:02:00.327Z,0.00
2022-07-28T00:03:00.516Z,0.00
2022-07-28T00:04:00.620Z,0.00
2022-07-28T00:05:00.800Z,0.00
2022-07-28T00:06:01.720Z,0.00
2022-07-28T00:07:01.112Z,0.00
2022-07-28T00:08:01.288Z,0.00
2022-07-28T00:09:01.454Z,0.00
2022-07-28T00:10:02.231Z,0.00
2022-07-28T00:11:01.732Z,0.00
2022-07-28T00:12:01.901Z,0.00
2022-07-28T00:13:02.051Z,0.00
2022-07-28T00:14:02.254Z,0.00
2022-07-28T00:15:02.433Z,0.00
2022-07-28T00:16:02.803Z,0.00
2022-07-28T00:17:02.752Z,0.00
2022-07-28T00:18:02.917Z,0.00
2022-07-28T00:19:03.440Z,0.00
2022-07-28T00:20:03.720Z,0.00
2022-07-28T00:21:03.388Z,0.00
2022-07-28T00:22:03.554Z,0.00
2022-07-28T00:23:03.726Z,0.00
2022-07-28T00:24:04.723Z,0.00
2022-07-28T00:25:04.726Z,0.00
2022-07-28T00:26:04.279Z,0.00
2022-07-28T00:27:04.442Z,0.00
2022-07-28T00:28:04.627Z,0.00
2022-07-28T00:29:04.741Z,0.00
2022-07-28T00:30:05.889Z,0.00
2022-07-28T00:31:05.944Z,0.00
2022-07-28T00:32:05.252Z,0.00
2022-07-28T00:33:05.342Z,0.00
2022-07-28T00:34:05.512Z,0.00
2022-07-28T00:35:08.097Z,0.00
2022-07-28T00:36:06.459Z,0.00
2022-07-28T00:37:06.789Z,0.00
2022-07-28T00:38:07.228Z,0.00
2022-07-28T00:39:06.486Z,0.00
2022-07-28T00:40:06.645Z,0.00
2022-07-28T00:41:07.239Z,0.00
2022-07-28T00:42:06.973Z,0.00
2022-07-28T00:43:07.107Z,0.00
2022-07-28T00:44:07.225Z,0.00
2022-07-28T00:45:08.229Z,0.00
2022-07-28T00:46:07.765Z,0.00
2022-07-28T00:47:07.669Z,0.00
2022-07-28T00:48:07.907Z,0.00
2022-07-28T00:49:08.226Z,0.00
2022-07-28T00:50:08.254Z,0.00
2022-07-28T00:51:08.436Z,0.00
2022-07-28T00:52:09.228Z,0.00
2022-07-28T00:53:08.933Z,0.00
2022-07-28T00:54:09.920Z,0.00
2022-07-28T00:55:09.734Z,0.00
2022-07-28T00:56:09.344Z,0.00
2022-07-28T00:57:09.451Z,0.00
2022-07-28T00:58:10.233Z,0.00
2022-07-28T00:59:09.832Z,0.00
2022-07-28T01:00:10.738Z,0.00
2022-07-28T01:01:10.749Z,0.00
2022-07-28T01:02:10.369Z,0.00
2022-07-28T01:03:10.504Z,0.00
2022-07-28T01:04:10.813Z,0.00
2022-07-28T01:05:10.847Z,0.00
2022-07-28T01:06:10.946Z,0.00
2022-07-28T01:07:11.088Z,0.00
2022-07-28T01:08:11.247Z,0.00
2022-07-28T01:09:11.367Z,0.00
2022-07-28T01:10:11.516Z,0.00
2022-07-28T01:11:11.644Z,0.00
2022-07-28T01:12:12.737Z,0.00
2022-07-28T01:13:12.249Z,0.00
2022-07-28T01:14:13.116Z,0.00
2022-07-28T01:15:13.243Z,0.00
2022-07-28T01:16:12.572Z,0.00
2022-07-28T01:17:12.635Z,0.00
2022-07-28T01:18:12.900Z,0.00
2022-07-28T01:19:13.044Z,0.00
2022-07-28T01:20:13.236Z,0.00
2022-07-28T01:21:13.436Z,0.00
2022-07-28T01:22:13.602Z,0.00
2022-07-28T01:23:13.779Z,0.00
2022-07-28T01:24:15.855Z,0.00
2022-07-28T01:25:14.178Z,0.00
2022-07-28T01:26:14.376Z,0.00
2022-07-28T01:27:14.578Z,0.00
2022-07-28T01:28:14.754Z,0.00
2022-07-28T01:29:14.946Z,0.00
2022-07-28T01:30:15.153Z,0.00
2022-07-28T01:31:15.490Z,0.00
2022-07-28T01:32:15.464Z,0.00
2022-07-28T01:33:15.668Z,0.00
2022-07-28T01:34:16.096Z,0.00
2022-07-28T01:35:16.025Z,0.00
2022-07-28T01:36:16.170Z,0.00
2022-07-28T01:37:16.322Z,0.00
2022-07-28T01:38:16.466Z,0.00
2022-07-28T01:39:16.664Z,0.00
2022-07-28T01:40:16.824Z,0.00
2022-07-28T01:41:16.979Z,0.00
2022-07-28T01:42:17.158Z,0.00
2022-07-28T01:43:18.241Z,0.00
2022-07-28T01:44:17.759Z,0.00
2022-07-28T01:45:17.663Z,0.00
2022-07-28T01:46:17.854Z,0.00
2022-07-28T01:47:18.755Z,0.00
2022-07-28T01:48:18.158Z,0.00
2022-07-28T01:49:19.285Z,0.00
2022-07-28T01:50:18.462Z,0.00
2022-07-28T01:51:19.289Z,0.00
2022-07-28T01:52:18.791Z,0.00
2022-07-28T01:53:19.753Z,0.00
2022-07-28T01:54:19.112Z,0.00
2022-07-28T01:55:19.269Z,0.00
2022-07-28T01:56:19.401Z,0.00
2022-07-28T01:57:19.541Z,0.00
2022-07-28T01:58:19.695Z,0.00
2022-07-28T01:59:19.841Z,0.00
2022-07-28T02:00:19.986Z,0.00
2022-07-28T02:01:20.310Z,0.00
2022-07-28T02:02:21.254Z,0.00
2022-07-28T02:03:20.503Z,0.00
2022-07-28T02:04:21.255Z,0.00
2022-07-28T02:05:21.858Z,0.00
2022-07-28T02:06:21.082Z,0.00
2022-07-28T02:07:21.238Z,0.00
2022-07-28T02:08:22.250Z,0.00
2022-07-28T02:09:21.630Z,0.00
2022-07-28T02:10:22.264Z,0.00
2022-07-28T02:11:22.754Z,0.00
2022-07-28T02:12:22.763Z,0.00
2022-07-28T02:13:22.260Z,0.00
2022-07-28T02:14:22.426Z,0.00
2022-07-28T02:15:22.601Z,0.00
2022-07-28T02:16:22.879Z,0.00
2022-07-28T02:17:23.007Z,0.00
2022-07-28T02:18:23.185Z,0.00
2022-07-28T02:19:23.345Z,0.00
2022-07-28T02:20:23.696Z,0.00
2022-07-28T02:21:23.632Z,0.00
2022-07-28T02:22:23.811Z,0.00
2022-07-28T02:23:23.969Z,0.00
2022-07-28T02:24:24.115Z,0.00
2022-07-28T02:25:24.263Z,0.00
2022-07-28T02:26:25.258Z,0.00
2022-07-28T02:27:24.621Z,0.00
2022-07-28T02:28:24.783Z,0.00
2022-07-28T02:29:49.706Z,0.00
2022-07-28T02:30:27.760Z,0.00
2022-07-28T02:31:25.379Z,0.00
2022-07-28T02:32:27.730Z,0.00
2022-07-28T02:33:58.690Z,0.00
2022-07-28T02:34:28.035Z,0.00
2022-07-28T02:35:30.649Z,0.00
2022-07-28T02:36:27.038Z,0.00
2022-07-28T02:37:26.177Z,0.00
2022-07-28T02:38:26.373Z,0.00
2022-07-28T02:39:26.567Z,0.00
2022-07-28T02:40:26.725Z,0.00
2022-07-28T02:41:27.273Z,0.00
2022-07-28T02:42:27.046Z,0.00
2022-07-28T02:43:49.064Z,0.00
2022-07-28T02:44:29.268Z,0.00
2022-07-28T02:45:27.505Z,0.00
2022-07-28T02:46:27.798Z,0.00
2022-07-28T02:47:27.882Z,0.00
2022-07-28T02:48:28.022Z,0.00
2022-07-28T02:49:28.166Z,0.00
2022-07-28T02:50:29.324Z,0.00
2022-07-28T02:51:28.465Z,0.00
2022-07-28T02:52:28.645Z,0.00
2022-07-28T02:53:28.788Z,0.00
2022-07-28T02:54:28.925Z,0.00
2022-07-28T02:55:29.785Z,0.00
2022-07-28T02:56:30.284Z,0.00
2022-07-28T02:57:29.414Z,0.00
2022-07-28T02:58:29.551Z,0.00
2022-07-28T02:59:29.702Z,0.00
2022-07-28T03:00:29.852Z,0.00
2022-07-28T03:01:30.082Z,0.00
2022-07-28T03:02:30.166Z,0.00
2022-07-28T03:03:30.353Z,0.00
2022-07-28T03:04:30.524Z,0.00
2022-07-28T03:05:30.754Z,0.00
2022-07-28T03:06:30.807Z,0.00
2022-07-28T03:07:31.764Z,0.00
2022-07-28T03:08:31.175Z,0.00
2022-07-28T03:09:31.320Z,0.00
2022-07-28T03:10:33.543Z,0.00
2022-07-28T03:11:31.613Z,0.00
2022-07-28T03:12:31.757Z,0.00
2022-07-28T03:13:31.945Z,4.00
2022-07-28T03:14:32.100Z,4.00
2022-07-28T03:15:32.305Z,0.00
2022-07-28T03:16:32.635Z,0.00
2022-07-28T03:17:32.621Z,4.00
2022-07-28T03:18:32.802Z,4.00
2022-07-28T03:19:33.777Z,0.00
2022-07-28T03:20:33.155Z,4.00
2022-07-28T03:21:33.790Z,4.00
2022-07-28T03:22:33.447Z,4.00
2022-07-28T03:23:33.588Z,4.00
2022-07-28T03:24:33.753Z,8.00
2022-07-28T03:25:34.775Z,4.00
2022-07-28T03:26:34.283Z,4.00
2022-07-28T03:27:34.290Z,8.00
2022-07-28T03:28:34.440Z,8.00
2022-07-28T03:29:34.694Z,8.00
2022-07-28T03:30:34.921Z,8.00
2022-07-28T03:31:34.973Z,12.00
2022-07-28T03:32:35.121Z,12.00
2022-07-28T03:33:35.293Z,16.00
2022-07-28T03:34:35.457Z,16.00
2022-07-28T03:35:35.607Z,20.00
2022-07-28T03:36:35.774Z,20.00
2022-07-28T03:37:36.775Z,20.00
2022-07-28T03:38:36.148Z,24.00
2022-07-28T03:39:36.331Z,28.00
2022-07-28T03:40:36.457Z,28.00
2022-07-28T03:41:37.274Z,28.00
2022-07-28T03:42:36.765Z,36.00
2022-07-28T03:43:37.010Z,36.00
2022-07-28T03:44:37.182Z,40.00
2022-07-28T03:45:41.007Z,44.00
2022-07-28T03:46:37.558Z,44.00
2022-07-28T03:47:38.283Z,52.00
2022-07-28T03:48:37.963Z,52.00
2022-07-28T03:49:38.094Z,60.00
2022-07-28T03:50:38.250Z,60.00
2022-07-28T03:51:38.394Z,64.00
2022-07-28T03:52:38.536Z,68.00
2022-07-28T03:53:38.692Z,72.00
2022-07-28T03:54:38.863Z,76.00
2022-07-28T03:55:39.296Z,80.00
2022-07-28T03:56:39.173Z,84.00
2022-07-28T03:57:39.301Z,88.00
2022-07-28T03:58:40.279Z,92.00
2022-07-28T03:59:39.660Z,96.00
2022-07-28T04:00:39.835Z,104.00
2022-07-28T04:01:40.122Z,112.00
2022-07-28T04:02:40.259Z,120.00
2022-07-28T04:03:43.862Z,128.00
2022-07-28T04:04:40.632Z,140.00
2022-07-28T04:05:40.809Z,152.00
2022-07-28T04:06:41.294Z,164.00
2022-07-28T04:07:41.212Z,176.00
2022-07-28T04:08:42.286Z,184.00
2022-07-28T04:09:41.538Z,196.00
2022-07-28T04:10:41.700Z,208.00
2022-07-28T04:11:42.300Z,216.00
2022-07-28T04:12:42.822Z,232.00
2022-07-28T04:13:42.245Z,244.00
2022-07-28T04:14:43.287Z,256.00
2022-07-28T04:15:42.526Z,272.00
2022-07-28T04:16:42.744Z,292.00
2022-07-28T04:17:42.790Z,308.00
2022-07-28T04:18:42.974Z,332.00
2022-07-28T04:19:43.783Z,364.00
2022-07-28T04:20:43.260Z,400.00
2022-07-28T04:21:45.295Z,428.00
2022-07-28T04:22:43.620Z,460.00
2022-07-28T04:23:43.776Z,496.00
2022-07-28T04:24:43.910Z,528.00
2022-07-28T04:25:44.053Z,552.00
2022-07-28T04:26:44.361Z,576.00
2022-07-28T04:27:44.400Z,592.00
2022-07-28T04:28:44.800Z,616.00
2022-07-28T04:29:44.673Z,636.00
2022-07-28T04:30:46.129Z,660.00
2022-07-28T04:31:44.923Z,684.00
2022-07-28T04:32:45.153Z,700.00
2022-07-28T04:33:45.301Z,720.00
2022-07-28T04:34:45.433Z,732.00
2022-07-28T04:35:45.831Z,748.00
2022-07-28T04:36:45.709Z,760.00
2022-07-28T04:37:45.863Z,768.00
2022-07-28T04:38:46.010Z,792.00
2022-07-28T04:39:46.788Z,828.00
2022-07-28T04:40:46.269Z,848.00
2022-07-28T04:41:46.543Z,872.00
2022-07-28T04:42:47.291Z,884.00
2022-07-28T04:43:46.898Z,900.00
2022-07-28T04:44:47.023Z,908.00
2022-07-28T04:45:54.201Z,920.00
2022-07-28T04:46:48.288Z,924.00
2022-07-28T04:47:47.809Z,948.00
2022-07-28T04:48:47.754Z,988.00
2022-07-28T04:49:47.815Z,1012.00
2022-07-28T04:50:48.803Z,1240.00
2022-07-28T04:51:48.795Z,1296.00
2022-07-28T04:52:48.431Z,1444.00
2022-07-28T04:53:48.559Z,1796.00
2022-07-28T04:54:49.303Z,2760.00
2022-07-28T04:55:49.798Z,1184.00
2022-07-28T04:56:49.797Z,1116.00
2022-07-28T04:57:49.305Z,1088.00
2022-07-28T04:58:49.822Z,1048.00
2022-07-28T04:59:49.571Z,1108.00
2022-07-28T05:00:50.523Z,1708.00
2022-07-28T05:01:51.013Z,1340.00
2022-07-28T05:02:50.160Z,1276.00
2022-07-28T05:03:50.810Z,1180.00
2022-07-28T05:04:50.565Z,1132.00
2022-07-28T05:05:52.969Z,1108.00
2022-07-28T05:06:50.808Z,1124.00
2022-07-28T05:07:50.945Z,1184.00
2022-07-28T05:08:51.310Z,1272.00
2022-07-28T05:09:51.330Z,1256.00
2022-07-28T05:10:51.480Z,1176.00
2022-07-28T05:11:51.652Z,1144.00
2022-07-28T05:12:51.769Z,1152.00
2022-07-28T05:13:51.936Z,1180.00
2022-07-28T05:14:52.074Z,1176.00
2022-07-28T05:15:52.313Z,1184.00
2022-07-28T05:16:52.511Z,1192.00
2022-07-28T05:17:52.657Z,1200.00
2022-07-28T05:18:52.817Z,1224.00
2022-07-28T05:19:53.032Z,1236.00
2022-07-28T05:20:53.230Z,1260.00
2022-07-28T05:21:53.379Z,1260.00
2022-07-28T05:22:53.528Z,1256.00
2022-07-28T05:23:53.676Z,1248.00
2022-07-28T05:24:53.802Z,1248.00
2022-07-28T05:25:54.802Z,1232.00
2022-07-28T05:26:54.318Z,1216.00
2022-07-28T05:27:54.806Z,1212.00
2022-07-28T05:28:54.560Z,1212.00
2022-07-28T05:29:54.698Z,1228.00
2022-07-28T05:30:54.824Z,1268.00
2022-07-28T05:31:55.093Z,1308.00
2022-07-28T05:32:55.235Z,1336.00
2022-07-28T05:33:56.305Z,1360.00
2022-07-28T05:34:55.515Z,1384.00
2022-07-28T05:35:56.306Z,1408.00
2022-07-28T05:36:55.825Z,1416.00
2022-07-28T05:37:55.937Z,1444.00
2022-07-28T05:38:56.062Z,1460.00
2022-07-28T05:39:56.200Z,1520.00
2022-07-28T05:40:56.333Z,1528.00
2022-07-28T05:41:56.816Z,1556.00
2022-07-28T05:42:57.331Z,1672.00
2022-07-28T05:43:56.852Z,1592.00
2022-07-28T05:44:56.979Z,1756.00
2022-07-28T05:45:57.227Z,1672.00
2022-07-28T05:46:57.311Z,1708.00
2022-07-28T05:47:57.451Z,1784.00
2022-07-28T05:48:57.665Z,1768.00
2022-07-28T05:49:57.831Z,1804.00
2022-07-28T05:50:57.972Z,1752.00
2022-07-28T05:51:58.200Z,1680.00
2022-07-28T05:52:59.308Z,1692.00
2022-07-28T05:53:58.560Z,1724.00
2022-07-28T05:54:58.742Z,1772.00
2022-07-28T05:56:01.743Z,1832.00
2022-07-28T05:56:59.812Z,1912.00
2022-07-28T05:57:59.223Z,1864.00
2022-07-28T05:58:59.388Z,1972.00
2022-07-28T05:59:59.827Z,2152.00
2022-07-28T06:00:59.836Z,2336.00
2022-07-28T06:01:59.977Z,2340.00
2022-07-28T06:03:00.811Z,2340.00
2022-07-28T06:04:24.255Z,2256.00
2022-07-28T06:05:02.420Z,2360.00
2022-07-28T06:06:15.738Z,2404.00
2022-07-28T06:07:01.835Z,2304.00
2022-07-28T06:08:01.056Z,2540.00
2022-07-28T06:09:01.211Z,2652.00
2022-07-28T06:10:01.829Z,2708.00
2022-07-28T06:11:01.615Z,2832.00
2022-07-28T06:12:02.325Z,2952.00
2022-07-28T06:13:02.827Z,3052.00
2022-07-28T06:14:02.819Z,3116.00
2022-07-28T06:15:02.304Z,3360.00
2022-07-28T06:16:02.474Z,4460.00
2022-07-28T06:17:03.409Z,3392.00
2022-07-28T06:18:02.845Z,4440.00
2022-07-28T06:19:02.973Z,4292.00
2022-07-28T06:20:03.102Z,5984.00
2022-07-28T06:21:03.348Z,4536.00
2022-07-28T06:22:04.532Z,3604.00
2022-07-28T06:23:03.767Z,3436.00
2022-07-28T06:24:04.837Z,5444.00
2022-07-28T06:25:04.084Z,3408.00
2022-07-28T06:26:04.824Z,2972.00
2022-07-28T06:27:04.439Z,3108.00
2022-07-28T06:28:05.591Z,3028.00
2022-07-28T06:29:04.708Z,3532.00
2022-07-28T06:30:04.821Z,3336.00
2022-07-28T06:31:05.922Z,2976.00
2022-07-28T06:32:06.254Z,2692.00
2022-07-28T06:33:06.338Z,2744.00
2022-07-28T06:34:05.838Z,2864.00
2022-07-28T06:35:05.715Z,3076.00
2022-07-28T06:36:05.854Z,3132.00
2022-07-28T06:37:06.833Z,3124.00
2022-07-28T06:38:06.193Z,3092.00
2022-07-28T06:39:06.543Z,2860.00
2022-07-28T06:40:07.319Z,3036.00
2022-07-28T06:41:06.890Z,3116.00
2022-07-28T06:42:07.002Z,3108.00
2022-07-28T06:43:07.160Z,3116.00
2022-07-28T06:44:11.860Z,3108.00
2022-07-28T06:45:08.333Z,3084.00
2022-07-28T06:46:08.326Z,3084.00
2022-07-28T06:47:07.859Z,3148.00
2022-07-28T06:48:08.052Z,3228.00
2022-07-28T06:49:08.310Z,3272.00
2022-07-28T06:50:25.539Z,3284.00
2022-07-28T06:51:09.531Z,3404.00
2022-07-28T06:52:08.776Z,3316.00
2022-07-28T06:53:09.827Z,3248.00
2022-07-28T06:54:11.376Z,3280.00
2022-07-28T06:55:10.830Z,3292.00
2022-07-28T06:56:13.893Z,3332.00
2022-07-28T06:57:10.664Z,3436.00
2022-07-28T06:58:10.341Z,3508.00
2022-07-28T06:59:10.073Z,3476.00
2022-07-28T07:00:10.208Z,3580.00
2022-07-28T07:01:10.360Z,3572.00
2022-07-28T07:02:11.563Z,3620.00
2022-07-28T07:03:10.682Z,3716.00
2022-07-28T07:04:10.918Z,3820.00
2022-07-28T07:05:11.827Z,3840.00
2022-07-28T07:06:11.460Z,3848.00
2022-07-28T07:07:14.908Z,7508.00
2022-07-28T07:08:12.563Z,14576.00
2022-07-28T07:09:11.665Z,12476.00
2022-07-28T07:10:11.848Z,11580.00
2022-07-28T07:11:12.018Z,10192.00
2022-07-28T07:12:12.862Z,5844.00
2022-07-28T07:13:13.504Z,4036.00
2022-07-28T07:14:12.590Z,3680.00
2022-07-28T07:15:12.690Z,3720.00
2022-07-28T07:16:13.393Z,5452.00
2022-07-28T07:17:13.070Z,3796.00
2022-07-28T07:18:13.351Z,3628.00
2022-07-28T07:19:15.911Z,3784.00
2022-07-28T07:20:16.606Z,3264.00
2022-07-28T07:21:13.737Z,6120.00
2022-07-28T07:22:13.918Z,7276.00
2022-07-28T07:23:14.076Z,3948.00
2022-07-28T07:24:14.613Z,5192.00
2022-07-28T07:25:14.865Z,6260.00
2022-07-28T07:26:14.637Z,5268.00
2022-07-28T07:27:14.761Z,24896.00
2022-07-28T07:28:14.917Z,17824.00
2022-07-28T07:29:15.077Z,10692.00
2022-07-28T07:30:15.290Z,4880.00
2022-07-28T07:31:15.491Z,3300.00
2022-07-28T07:32:15.667Z,3344.00
2022-07-28T07:33:16.347Z,3612.00
2022-07-28T07:34:17.333Z,2856.00
2022-07-28T07:35:16.110Z,3172.00
2022-07-28T07:36:16.268Z,3756.00
2022-07-28T07:37:16.415Z,13984.00
2022-07-28T07:38:16.599Z,28480.00
2022-07-28T07:39:17.349Z,15040.00
2022-07-28T07:40:17.846Z,6540.00
2022-07-28T07:41:17.116Z,15012.00
2022-07-28T07:42:17.255Z,3348.00
2022-07-28T07:43:17.430Z,4456.00
2022-07-28T07:44:17.945Z,3864.00
2022-07-28T07:45:17.793Z,3680.00
2022-07-28T07:46:17.998Z,2948.00
2022-07-28T07:47:18.190Z,3824.00
2022-07-28T07:48:18.846Z,5148.00
2022-07-28T07:49:18.540Z,3208.00
2022-07-28T07:50:18.676Z,2956.00
2022-07-28T07:51:19.333Z,2952.00
2022-07-28T07:52:19.954Z,2968.00
2022-07-28T07:53:19.194Z,3004.00
2022-07-28T07:54:19.358Z,3048.00
2022-07-28T07:55:19.866Z,3056.00
2022-07-28T07:56:19.634Z,3000.00
2022-07-28T07:57:19.808Z,2768.00
2022-07-28T07:58:20.174Z,2728.00
2022-07-28T07:59:20.851Z,3024.00
2022-07-28T08:00:28.197Z,2976.00
2022-07-28T08:01:21.533Z,2924.00
2022-07-28T08:02:20.687Z,2976.00
2022-07-28T08:03:22.674Z,3480.00
2022-07-28T08:04:21.027Z,5432.00
2022-07-28T08:05:21.377Z,6912.00
2022-07-28T08:06:26.247Z,6260.00
2022-07-28T08:07:22.363Z,2560.00
2022-07-28T08:08:21.728Z,2928.00
2022-07-28T08:09:21.876Z,2892.00
2022-07-28T08:10:22.486Z,2860.00
2022-07-28T08:11:22.876Z,2844.00
2022-07-28T08:12:25.277Z,2848.00
2022-07-28T08:13:22.561Z,2568.00
2022-07-28T08:14:23.358Z,2820.00
2022-07-28T08:15:22.860Z,2888.00
2022-07-28T08:16:23.919Z,3556.00
2022-07-28T08:17:25.880Z,2800.00
2022-07-28T08:18:24.291Z,2824.00
2022-07-28T08:19:23.535Z,2812.00
2022-07-28T08:20:23.703Z,2744.00
2022-07-28T08:21:23.850Z,2764.00
2022-07-28T08:22:23.999Z,2748.00
2022-07-28T08:23:26.311Z,2848.00
2022-07-28T08:24:32.606Z,2892.00
2022-07-28T08:25:25.533Z,2760.00
2022-07-28T08:26:24.644Z,2892.00
2022-07-28T08:27:25.371Z,2776.00
2022-07-28T08:28:24.993Z,2816.00
2022-07-28T08:29:25.374Z,2784.00
2022-07-28T08:30:30.140Z,2836.00
2022-07-28T08:31:28.411Z,2820.00
2022-07-28T08:32:25.622Z,2784.00
2022-07-28T08:33:25.878Z,2768.00
2022-07-28T08:34:31.477Z,2812.00
2022-07-28T08:35:35.595Z,2748.00
2022-07-28T08:36:28.239Z,2876.00
2022-07-28T08:37:26.461Z,2788.00
2022-07-28T08:38:27.359Z,2880.00
2022-07-28T08:39:26.905Z,2800.00
2022-07-28T08:40:27.983Z,2744.00
2022-07-28T08:41:33.450Z,2736.00
2022-07-28T08:42:28.345Z,2816.00
2022-07-28T08:43:28.360Z,2836.00
2022-07-28T08:44:27.732Z,2748.00
2022-07-28T08:45:28.231Z,2724.00
2022-07-28T08:46:28.061Z,2712.00
2022-07-28T08:47:40.208Z,2760.00
2022-07-28T08:48:30.341Z,2720.00
2022-07-28T08:49:29.443Z,2744.00
2022-07-28T08:50:28.733Z,2736.00
2022-07-28T08:51:29.374Z,2756.00
2022-07-28T08:52:29.007Z,2700.00
2022-07-28T08:53:29.873Z,2588.00
2022-07-28T08:54:30.372Z,2688.00
2022-07-28T08:55:31.308Z,2584.00
2022-07-28T08:56:29.781Z,2628.00
2022-07-28T08:57:29.944Z,2632.00
2022-07-28T08:58:30.098Z,2612.00
2022-07-28T08:59:30.261Z,2628.00
2022-07-28T09:00:30.881Z,2632.00
2022-07-28T09:01:38.810Z,2644.00
2022-07-28T09:02:32.021Z,2596.00
2022-07-28T09:03:31.059Z,2576.00
2022-07-28T09:04:31.086Z,2732.00
2022-07-28T09:05:31.257Z,2580.00
2022-07-28T09:06:32.376Z,2596.00
2022-07-28T09:07:31.547Z,2908.00
2022-07-28T09:08:31.643Z,2616.00
2022-07-28T09:09:31.817Z,2628.00
2022-07-28T09:10:32.935Z,2572.00
2022-07-28T09:11:32.180Z,2592.00
2022-07-28T09:12:32.345Z,2536.00
2022-07-28T09:13:32.501Z,2640.00
2022-07-28T09:14:32.654Z,2488.00
2022-07-28T09:15:32.916Z,2464.00
2022-07-28T09:16:33.058Z,2588.00
2022-07-28T09:17:33.183Z,2524.00
2022-07-28T09:18:33.876Z,2636.00
2022-07-28T09:19:34.526Z,5708.00
2022-07-28T09:20:33.747Z,7032.00
2022-07-28T09:21:33.944Z,5656.00
2022-07-28T09:22:34.874Z,6724.00
2022-07-28T09:23:42.874Z,2712.00
2022-07-28T09:24:35.412Z,2916.00
2022-07-28T09:25:35.385Z,2568.00
2022-07-28T09:26:34.759Z,2544.00
2022-07-28T09:27:34.941Z,2544.00
2022-07-28T09:28:35.102Z,2820.00
2022-07-28T09:29:35.238Z,2820.00
2022-07-28T09:30:35.878Z,2596.00
2022-07-28T09:31:36.462Z,2528.00
2022-07-28T09:32:35.890Z,2596.00
2022-07-28T09:33:43.046Z,2552.00
2022-07-28T09:34:36.917Z,2552.00
2022-07-28T09:36:10.321Z,2520.00
2022-07-28T09:36:36.939Z,2472.00
2022-07-28T09:37:36.495Z,2520.00
2022-07-28T09:38:37.430Z,2528.00
2022-07-28T09:39:36.803Z,2688.00
2022-07-28T09:40:37.923Z,4348.00
2022-07-28T09:41:37.187Z,4116.00
2022-07-28T09:42:37.442Z,2660.00
2022-07-28T09:43:37.614Z,2820.00
2022-07-28T09:44:37.804Z,2584.00
2022-07-28T09:45:37.965Z,2500.00
2022-07-28T09:46:38.308Z,3000.00
2022-07-28T09:47:38.698Z,2556.00
2022-07-28T09:48:38.731Z,4652.00
2022-07-28T09:49:38.758Z,6996.00
2022-07-28T09:50:39.428Z,4920.00
2022-07-28T09:51:39.957Z,2716.00
2022-07-28T09:52:39.212Z,2544.00
2022-07-28T09:53:39.390Z,2596.00
2022-07-28T09:54:41.180Z,2600.00
2022-07-28T09:55:40.692Z,2532.00
2022-07-28T09:56:39.823Z,3368.00
2022-07-28T09:57:40.240Z,2996.00
2022-07-28T09:58:40.475Z,2572.00
2022-07-28T09:59:40.357Z,2436.00
2022-07-28T10:00:40.942Z,2468.00
2022-07-28T10:01:40.737Z,2476.00
2022-07-28T10:02:41.060Z,2400.00
2022-07-28T10:03:41.093Z,2428.00
2022-07-28T10:04:41.236Z,2412.00
2022-07-28T10:05:41.376Z,2368.00
2022-07-28T10:06:42.446Z,2364.00
2022-07-28T10:07:41.714Z,2368.00
2022-07-28T10:08:42.250Z,2464.00
2022-07-28T10:09:42.056Z,2516.00
2022-07-28T10:10:43.935Z,2656.00
2022-07-28T10:11:42.434Z,2468.00
2022-07-28T10:12:42.574Z,2476.00
2022-07-28T10:13:42.772Z,3136.00
2022-07-28T10:14:42.963Z,2484.00
2022-07-28T10:15:50.624Z,4088.00
2022-07-28T10:16:44.312Z,2900.00
2022-07-28T10:17:43.409Z,3132.00
2022-07-28T10:18:44.440Z,4012.00
2022-07-28T10:19:44.444Z,3056.00
2022-07-28T10:20:43.813Z,2616.00
2022-07-28T10:21:43.984Z,2440.00
2022-07-28T10:22:44.968Z,2448.00
2022-07-28T10:23:44.340Z,2484.00
2022-07-28T10:24:44.496Z,2552.00
2022-07-28T10:25:45.448Z,2752.00
2022-07-28T10:26:44.841Z,3708.00
2022-07-28T10:27:45.939Z,3312.00
2022-07-28T10:28:45.941Z,2908.00
2022-07-28T10:29:45.939Z,2920.00
2022-07-28T10:30:45.637Z,2620.00
2022-07-28T10:31:45.797Z,3048.00
2022-07-28T10:32:46.438Z,2984.00
2022-07-28T10:33:46.943Z,3140.00
2022-07-28T10:34:46.297Z,3352.00
2022-07-28T10:35:55.337Z,4360.00
2022-07-28T10:36:47.567Z,2720.00
2022-07-28T10:37:46.703Z,2448.00
2022-07-28T10:38:46.805Z,2456.00
2022-07-28T10:39:46.945Z,2456.00
2022-07-28T10:40:47.055Z,2540.00
2022-07-28T10:41:47.461Z,2928.00
2022-07-28T10:42:47.333Z,2500.00
2022-07-28T10:43:48.872Z,2496.00
2022-07-28T10:44:47.768Z,2484.00
2022-07-28T10:46:04.926Z,2436.00
2022-07-28T10:46:50.260Z,2468.00
2022-07-28T10:47:48.948Z,2480.00
2022-07-28T10:48:48.523Z,2404.00
2022-07-28T10:49:48.910Z,2408.00
2022-07-28T10:50:48.904Z,2416.00
2022-07-28T10:52:06.395Z,2368.00
2022-07-28T10:52:55.981Z,2404.00
2022-07-28T10:53:51.962Z,2376.00
2022-07-28T10:54:49.968Z,2376.00
2022-07-28T10:55:49.865Z,2376.00
2022-07-28T10:56:50.008Z,2348.00
2022-07-28T10:58:02.239Z,2376.00
2022-07-28T10:58:51.409Z,2488.00
2022-07-28T10:59:55.803Z,2464.00
2022-07-28T11:01:02.010Z,2356.00
2022-07-28T11:01:54.022Z,2260.00
2022-07-28T11:02:51.427Z,2204.00
2022-07-28T11:03:52.049Z,2384.00
2022-07-28T11:04:51.978Z,2352.00
2022-07-28T11:05:51.756Z,2368.00
2022-07-28T11:06:51.909Z,2432.00
2022-07-28T11:07:52.035Z,2328.00
2022-07-28T11:08:53.199Z,1904.00
2022-07-28T11:09:52.334Z,2924.00
2022-07-28T11:10:56.233Z,2752.00
2022-07-28T11:11:54.458Z,2536.00
2022-07-28T11:12:52.822Z,2440.00
2022-07-28T11:13:53.031Z,2432.00
2022-07-28T11:14:53.211Z,2364.00
2022-07-28T11:15:54.078Z,2384.00
2022-07-28T11:16:53.590Z,2424.00
2022-07-28T11:17:53.799Z,2056.00
2022-07-28T11:18:54.459Z,2428.00
2022-07-28T11:21:00.232Z,2464.00
2022-07-28T11:21:54.500Z,2480.00
2022-07-28T11:22:54.658Z,2480.00
2022-07-28T11:23:54.767Z,2468.00
2022-07-28T11:24:54.921Z,2496.00
2022-07-28T11:25:55.960Z,2428.00
2022-07-28T11:26:55.325Z,2464.00
2022-07-28T11:27:55.485Z,2452.00
2022-07-28T11:28:55.630Z,2484.00
2022-07-28T11:29:55.818Z,2492.00
2022-07-28T11:30:56.989Z,2436.00
2022-07-28T11:31:56.968Z,2456.00
2022-07-28T11:32:56.381Z,2456.00
2022-07-28T11:33:57.470Z,2348.00
2022-07-28T11:34:56.710Z,2440.00
2022-07-28T11:35:56.871Z,2496.00
2022-07-28T11:36:57.083Z,2460.00
2022-07-28T11:37:57.259Z,2128.00
2022-07-28T11:38:57.477Z,2572.00
2022-07-28T11:39:58.469Z,2332.00
2022-07-28T11:40:57.851Z,2580.00
2022-07-28T11:41:58.985Z,2628.00
2022-07-28T11:42:58.994Z,2604.00
2022-07-28T11:43:58.485Z,2520.00
2022-07-28T11:44:58.389Z,2608.00
2022-07-28T11:45:58.603Z,2516.00
2022-07-28T11:46:58.714Z,2508.00
2022-07-28T11:47:58.880Z,2436.00
2022-07-28T11:48:59.578Z,2308.00
2022-07-28T11:49:59.247Z,2292.00
2022-07-28T11:50:59.408Z,2412.00
2022-07-28T11:52:00.491Z,2484.00
2022-07-28T11:53:00.570Z,2532.00
2022-07-28T11:53:59.969Z,2640.00
2022-07-28T11:55:01.581Z,2708.00
2022-07-28T11:56:02.866Z,2800.00
2022-07-28T11:57:00.455Z,2764.00
2022-07-28T11:58:00.593Z,2724.00
2022-07-28T11:59:00.763Z,2736.00
2022-07-28T12:00:00.991Z,2736.00
2022-07-28T12:01:01.492Z,2784.00
2022-07-28T12:02:02.014Z,2776.00
2022-07-28T12:03:01.978Z,2872.00
2022-07-28T12:04:01.604Z,2624.00
2022-07-28T12:05:02.090Z,2804.00
2022-07-28T12:06:01.906Z,2856.00
2022-07-28T12:07:02.047Z,2892.00
2022-07-28T12:08:02.247Z,2848.00
2022-07-28T12:09:03.005Z,2840.00
2022-07-28T12:10:02.507Z,2836.00
2022-07-28T12:11:02.673Z,2948.00
2022-07-28T12:12:02.818Z,2948.00
2022-07-28T12:13:02.991Z,3112.00
2022-07-28T12:14:03.153Z,3044.00
2022-07-28T12:15:07.102Z,3052.00
2022-07-28T12:16:04.512Z,3008.00
2022-07-28T12:17:03.690Z,3036.00
2022-07-28T12:18:04.008Z,3048.00
2022-07-28T12:19:03.937Z,3048.00
2022-07-28T12:20:04.983Z,3020.00
2022-07-28T12:21:05.972Z,2948.00
2022-07-28T12:22:05.314Z,2984.00
2022-07-28T12:23:04.501Z,3020.00
2022-07-28T12:24:04.640Z,3056.00
2022-07-28T12:25:05.483Z,3084.00
2022-07-28T12:26:05.988Z,3084.00
2022-07-28T12:27:05.099Z,3060.00
2022-07-28T12:28:05.242Z,3020.00
2022-07-28T12:29:08.386Z,2972.00
2022-07-28T12:30:06.767Z,2984.00
2022-07-28T12:31:05.864Z,3012.00